Time;durP1;ratioP1;P1;durP2;ratioP2;P2;SDS_P1;SDS_P2;PMS_P1;PMS_P2;Temp;Humidity;BMP_temperature;BMP_pressure;BME280_temperature;BME280_humidity;BME280_pressure;Samples;Min_cycle;Max_cycle;Signal;HPM_P1;HPM_P2
2023/05/28 00:02:18;;;;;;;;;;;12.30;99.90;;;;;;5089552;28;20376;-88
2023/05/28 00:04:43;;;;;;;;;;;12.20;99.90;;;;;;5094894;28;19982;-86
2023/05/28 00:07:10;;;;;;;;;;;12.20;99.90;;;;;;5084999;28;19981;-87
2023/05/28 00:09:36;;;;;;;;;;;12.20;99.90;;;;;;5094422;28;20013;-85
2023/05/28 00:12:02;;;;;;;;;;;12.10;99.90;;;;;;5095602;28;19927;-85
2023/05/28 00:14:27;;;;;;;;;;;12.00;99.90;;;;;;5094848;28;19935;-85
2023/05/28 00:16:54;;;;;;;;;;;12.00;99.90;;;;;;5092825;28;19932;-85
2023/05/28 00:19:19;;;;;;;;;;;11.90;99.90;;;;;;5074984;28;19967;-85
2023/05/28 00:21:45;;;;;;;;;;;11.90;99.90;;;;;;5093466;28;20438;-85
2023/05/28 00:24:10;;;;;;;;;;;11.90;99.90;;;;;;5100423;28;19927;-86
2023/05/28 00:26:37;;;;;;;;;;;11.80;99.90;;;;;;5093296;28;20322;-84
2023/05/28 00:29:02;;;;;;;;;;;11.90;99.90;;;;;;5078646;28;19978;-84
2023/05/28 00:31:28;;;;;;;;;;;11.80;99.90;;;;;;5099350;28;20006;-85
2023/05/28 00:33:54;;;;;;;;;;;11.70;99.90;;;;;;5090456;28;19936;-85
2023/05/28 00:36:19;;;;;;;;;;;11.70;99.90;;;;;;5099707;28;20001;-84
2023/05/28 00:38:45;;;;;;;;;;;11.70;99.90;;;;;;5093922;28;19932;-84
2023/05/28 00:41:12;;;;;;;;;;;11.60;99.90;;;;;;5090459;28;21815;-84
2023/05/28 00:43:38;;;;;;;;;;;11.60;99.90;;;;;;5096032;28;20019;-84
2023/05/28 00:46:05;;;;;;;;;;;11.60;99.90;;;;;;5094974;28;19971;-85
2023/05/28 00:48:31;;;;;;;;;;;11.60;99.90;;;;;;5076755;28;19935;-84
2023/05/28 00:51:00;;;;;;;;;;;11.60;99.90;;;;;;5097423;28;19923;-85
2023/05/28 00:53:25;;;;;;;;;;;11.60;99.90;;;;;;5072807;28;20612;-84
2023/05/28 00:55:52;;;;;;;;;;;11.60;99.90;;;;;;5102816;28;19928;-84
2023/05/28 00:58:19;;;;;;;;;;;11.50;99.90;;;;;;5088203;28;19928;-85
2023/05/28 01:00:45;;;;;;;;;;;11.50;99.90;;;;;;5093729;28;19940;-85
2023/05/28 01:03:14;;;;;;;;;;;11.40;99.90;;;;;;5080618;28;19927;-84
2023/05/28 01:05:40;;;;;;;;;;;11.40;99.90;;;;;;5094043;28;19930;-84
2023/05/28 01:08:08;;;;;;;;;;;11.20;99.90;;;;;;5097318;28;19932;-85
2023/05/28 01:10:36;;;;;;;;;;;11.20;99.90;;;;;;5077661;28;19927;-85
2023/05/28 01:13:03;;;;;;;;;;;11.20;99.90;;;;;;5078694;28;19924;-84
2023/05/28 01:15:29;;;;;;;;;;;11.10;99.90;;;;;;5100808;28;19928;-84
2023/05/28 01:17:57;;;;;;;;;;;11.10;99.90;;;;;;5091025;28;19938;-84
2023/05/28 01:20:23;;;;;;;;;;;11.10;99.90;;;;;;5097834;28;19924;-84
2023/05/28 01:22:58;;;;;;;;;;;11.00;99.90;;;;;;5091488;28;20047;-84
2023/05/28 01:25:24;;;;;;;;;;;11.10;99.90;;;;;;5091327;28;20061;-84
2023/05/28 01:27:50;;;;;;;;;;;11.20;99.90;;;;;;5094490;28;19931;-84
2023/05/28 01:30:16;;;;;;;;;;;11.10;99.90;;;;;;5092656;28;19930;-84
2023/05/28 01:32:42;;;;;;;;;;;11.00;99.90;;;;;;5098704;28;19928;-84
2023/05/28 01:35:08;;;;;;;;;;;10.90;99.90;;;;;;5098332;28;19981;-84
2023/05/28 01:37:36;;;;;;;;;;;11.00;99.90;;;;;;5095030;28;19931;-85
2023/05/28 01:40:04;;;;;;;;;;;11.00;99.90;;;;;;5084231;28;19981;-84
2023/05/28 01:42:31;;;;;;;;;;;10.90;99.90;;;;;;5090646;28;19924;-84
2023/05/28 01:44:57;;;;;;;;;;;10.80;99.90;;;;;;5099349;28;19924;-84
2023/05/28 01:47:23;;;;;;;;;;;11.00;99.90;;;;;;5096690;28;20466;-84
2023/05/28 01:49:49;;;;;;;;;;;11.00;99.90;;;;;;5083627;28;19935;-84
2023/05/28 01:52:15;;;;;;;;;;;11.00;99.90;;;;;;5101096;28;19932;-85
2023/05/28 01:54:40;;;;;;;;;;;11.00;99.90;;;;;;5098237;28;20015;-86
2023/05/28 01:57:06;;;;;;;;;;;11.00;99.90;;;;;;5096729;28;19970;-86
2023/05/28 01:59:32;;;;;;;;;;;11.10;99.90;;;;;;5094889;28;19971;-86
2023/05/28 02:01:57;;;;;;;;;;;11.10;99.90;;;;;;5095001;28;19974;-85
2023/05/28 02:04:23;;;;;;;;;;;11.10;99.90;;;;;;5099903;28;19935;-85
2023/05/28 02:06:49;;;;;;;;;;;10.90;99.90;;;;;;5096537;28;19928;-86
2023/05/28 02:09:15;;;;;;;;;;;11.00;99.90;;;;;;5102286;28;20308;-87
2023/05/28 02:11:41;;;;;;;;;;;10.80;99.90;;;;;;5096122;28;19928;-86
2023/05/28 02:14:06;;;;;;;;;;;11.00;99.90;;;;;;5098112;28;19932;-84
2023/05/28 02:16:32;;;;;;;;;;;11.00;99.90;;;;;;5098360;28;19929;-84
2023/05/28 02:19:00;;;;;;;;;;;11.00;99.90;;;;;;5079457;28;19950;-84
2023/05/28 02:21:26;;;;;;;;;;;10.90;99.90;;;;;;5103280;28;20016;-84
2023/05/28 02:23:52;;;;;;;;;;;10.70;99.90;;;;;;5089831;28;19928;-84
2023/05/28 02:26:18;;;;;;;;;;;10.60;99.90;;;;;;5097389;28;19923;-83
2023/05/28 02:28:43;;;;;;;;;;;10.60;99.90;;;;;;5091534;28;19928;-83
2023/05/28 02:31:09;;;;;;;;;;;10.60;99.90;;;;;;5102650;28;20551;-84
2023/05/28 02:33:36;;;;;;;;;;;10.50;99.90;;;;;;5092684;28;19964;-84
2023/05/28 02:36:02;;;;;;;;;;;10.50;99.90;;;;;;5092926;28;20703;-84
2023/05/28 02:38:27;;;;;;;;;;;10.60;99.90;;;;;;5096288;28;19942;-85
2023/05/28 02:40:53;;;;;;;;;;;10.60;99.90;;;;;;5077808;28;19935;-86
2023/05/28 02:43:18;;;;;;;;;;;10.60;99.90;;;;;;5096098;28;19932;-84
2023/05/28 02:45:44;;;;;;;;;;;10.60;99.90;;;;;;5100893;28;20014;-85
2023/05/28 02:48:09;;;;;;;;;;;10.60;99.90;;;;;;5095258;28;20409;-84
2023/05/28 02:50:35;;;;;;;;;;;10.40;99.90;;;;;;5097134;28;20392;-85
2023/05/28 02:53:01;;;;;;;;;;;10.50;99.90;;;;;;5095620;28;19943;-86
2023/05/28 02:55:27;;;;;;;;;;;10.40;99.90;;;;;;5098620;28;19931;-84
2023/05/28 02:57:52;;;;;;;;;;;10.40;99.90;;;;;;5095344;28;19935;-84
2023/05/28 03:00:19;;;;;;;;;;;10.40;99.90;;;;;;5095001;28;19927;-84
2023/05/28 03:02:45;;;;;;;;;;;10.40;99.90;;;;;;5099773;28;20471;-84
2023/05/28 03:05:10;;;;;;;;;;;10.50;99.90;;;;;;5096879;28;19924;-84
2023/05/28 03:07:36;;;;;;;;;;;10.40;99.90;;;;;;5094119;28;19928;-84
2023/05/28 03:10:02;;;;;;;;;;;10.50;99.90;;;;;;5099431;28;19927;-85
2023/05/28 03:12:28;;;;;;;;;;;10.50;99.90;;;;;;5091769;28;19924;-86
2023/05/28 03:14:53;;;;;;;;;;;10.50;99.90;;;;;;5100749;28;19950;-85
2023/05/28 03:17:19;;;;;;;;;;;10.60;99.90;;;;;;5097744;28;19928;-84
2023/05/28 03:19:45;;;;;;;;;;;10.60;99.90;;;;;;5094011;28;19938;-85
2023/05/28 03:22:10;;;;;;;;;;;10.60;99.90;;;;;;5094036;28;19927;-85
2023/05/28 03:24:38;;;;;;;;;;;10.60;99.90;;;;;;5092993;28;20301;-84
2023/05/28 03:27:05;;;;;;;;;;;10.50;99.90;;;;;;5093580;28;19924;-84
2023/05/28 03:29:31;;;;;;;;;;;10.60;99.90;;;;;;5079142;28;19927;-85
2023/05/28 03:31:56;;;;;;;;;;;10.60;99.90;;;;;;5097671;28;20066;-83
2023/05/28 03:34:23;;;;;;;;;;;10.50;99.90;;;;;;5091418;28;20034;-84
2023/05/28 03:36:49;;;;;;;;;;;10.60;99.90;;;;;;5097556;28;19934;-85
2023/05/28 03:39:15;;;;;;;;;;;10.70;99.90;;;;;;5095613;28;19950;-84
2023/05/28 03:41:40;;;;;;;;;;;10.70;99.90;;;;;;5093679;28;20286;-84
2023/05/28 03:44:06;;;;;;;;;;;10.70;99.90;;;;;;5096900;28;19932;-85
2023/05/28 03:46:32;;;;;;;;;;;10.70;99.90;;;;;;5079999;28;19932;-84
2023/05/28 03:48:57;;;;;;;;;;;10.60;99.90;;;;;;5100582;28;19927;-85
2023/05/28 03:51:23;;;;;;;;;;;10.80;99.90;;;;;;5074114;28;19928;-85
2023/05/28 03:53:49;;;;;;;;;;;10.80;99.90;;;;;;5081514;28;19934;-85
2023/05/28 03:56:16;;;;;;;;;;;10.90;99.90;;;;;;5075525;28;19932;-84
2023/05/28 03:58:41;;;;;;;;;;;11.00;99.90;;;;;;5095990;28;20397;-85
2023/05/28 04:01:07;;;;;;;;;;;11.00;99.90;;;;;;5098973;28;19963;-85
2023/05/28 04:03:33;;;;;;;;;;;11.00;99.90;;;;;;5096454;28;19931;-85
2023/05/28 04:05:59;;;;;;;;;;;11.10;99.90;;;;;;5095769;28;20417;-85
2023/05/28 04:08:24;;;;;;;;;;;11.00;99.90;;;;;;5099953;28;20023;-86
2023/05/28 04:10:50;;;;;;;;;;;11.10;99.90;;;;;;5088583;28;19989;-86
2023/05/28 04:13:16;;;;;;;;;;;11.10;99.90;;;;;;5100332;28;19973;-85
2023/05/28 04:15:42;;;;;;;;;;;11.10;99.90;;;;;;5096780;28;19988;-84
2023/05/28 04:18:07;;;;;;;;;;;11.20;99.90;;;;;;5100894;28;20564;-85
2023/05/28 04:20:35;;;;;;;;;;;11.20;99.90;;;;;;5097923;28;19935;-84
2023/05/28 04:23:01;;;;;;;;;;;11.20;99.90;;;;;;5101566;28;19927;-85
2023/05/28 04:25:26;;;;;;;;;;;11.30;99.90;;;;;;5097672;28;19946;-85
2023/05/28 04:27:52;;;;;;;;;;;11.40;99.90;;;;;;5098846;28;20011;-84
2023/05/28 04:30:18;;;;;;;;;;;11.50;99.90;;;;;;5100590;28;19974;-84
2023/05/28 04:32:43;;;;;;;;;;;11.50;99.90;;;;;;5095716;28;19964;-84
2023/05/28 04:35:09;;;;;;;;;;;11.60;99.90;;;;;;5102037;28;19927;-84
2023/05/28 04:37:36;;;;;;;;;;;11.80;99.90;;;;;;5097245;28;20060;-85
2023/05/28 04:40:03;;;;;;;;;;;11.80;99.90;;;;;;5097664;28;19951;-84
2023/05/28 04:42:29;;;;;;;;;;;12.00;99.90;;;;;;5099105;28;19931;-83
2023/05/28 04:44:55;;;;;;;;;;;12.30;99.90;;;;;;5099547;28;19935;-84
2023/05/28 04:47:22;;;;;;;;;;;14.00;99.90;;;;;;5101263;28;19935;-85
2023/05/28 04:49:48;;;;;;;;;;;14.70;99.90;;;;;;5094197;28;19928;-85
2023/05/28 04:52:14;;;;;;;;;;;15.30;99.90;;;;;;5100896;28;19942;-84
2023/05/28 04:54:39;;;;;;;;;;;15.50;99.90;;;;;;5097219;28;19932;-85
2023/05/28 04:57:05;;;;;;;;;;;15.20;99.90;;;;;;5100871;28;20015;-85
2023/05/28 04:59:31;;;;;;;;;;;14.50;99.90;;;;;;5096334;28;19932;-84
2023/05/28 05:01:56;;;;;;;;;;;14.30;99.90;;;;;;5096197;28;19981;-85
2023/05/28 05:04:22;;;;;;;;;;;13.70;99.90;;;;;;5082051;28;19932;-85
2023/05/28 05:06:47;;;;;;;;;;;13.50;99.90;;;;;;5096836;28;19931;-84
2023/05/28 05:09:13;;;;;;;;;;;13.40;99.90;;;;;;5102520;28;19934;-84
2023/05/28 05:11:39;;;;;;;;;;;13.20;99.90;;;;;;5101449;28;22611;-86
2023/05/28 05:14:04;;;;;;;;;;;13.10;99.90;;;;;;5104204;28;19931;-85
2023/05/28 05:16:30;;;;;;;;;;;13.10;99.90;;;;;;5102656;28;19923;-83
2023/05/28 05:18:56;;;;;;;;;;;13.20;99.90;;;;;;5084713;28;20015;-85
2023/05/28 05:21:21;;;;;;;;;;;13.40;99.90;;;;;;5104939;28;19928;-83
2023/05/28 05:23:47;;;;;;;;;;;14.90;99.90;;;;;;5084732;28;19928;-84
2023/05/28 05:26:14;;;;;;;;;;;15.10;99.90;;;;;;5099891;28;20609;-85
2023/05/28 05:28:41;;;;;;;;;;;17.30;99.90;;;;;;5103207;28;19927;-84
2023/05/28 05:31:07;;;;;;;;;;;18.50;99.90;;;;;;5097410;28;20057;-84
2023/05/28 05:33:32;;;;;;;;;;;19.50;99.90;;;;;;5085318;28;19949;-85
2023/05/28 05:35:58;;;;;;;;;;;19.10;99.90;;;;;;5102167;28;20014;-84
2023/05/28 05:38:27;;;;;;;;;;;19.00;99.90;;;;;;5102302;28;19930;-84
2023/05/28 05:40:52;;;;;;;;;;;19.30;99.90;;;;;;5082212;28;19924;-85
2023/05/28 05:43:18;;;;;;;;;;;19.00;99.90;;;;;;5102727;28;19924;-84
2023/05/28 05:45:43;;;;;;;;;;;18.40;99.90;;;;;;5101744;28;20417;-86
2023/05/28 05:48:09;;;;;;;;;;;18.10;99.90;;;;;;5103768;28;20296;-86
2023/05/28 05:50:46;;;;;;;;;;;17.70;99.90;;;;;;5099194;28;20046;-86
2023/05/28 05:53:12;;;;;;;;;;;17.30;99.90;;;;;;5099297;28;20735;-83
2023/05/28 05:55:37;;;;;;;;;;;17.50;99.90;;;;;;5091022;28;19932;-83
2023/05/28 05:58:03;;;;;;;;;;;17.30;99.90;;;;;;5096858;28;19977;-83
2023/05/28 06:00:29;;;;;;;;;;;17.50;99.90;;;;;;5100828;28;19928;-83
2023/05/28 06:02:54;;;;;;;;;;;17.40;99.90;;;;;;5102257;28;20642;-85
2023/05/28 06:05:20;;;;;;;;;;;17.50;99.90;;;;;;5098198;28;20022;-85
2023/05/28 06:07:46;;;;;;;;;;;17.60;99.90;;;;;;5100198;28;20434;-87
2023/05/28 06:10:12;;;;;;;;;;;17.90;99.90;;;;;;5100385;28;20623;-85
2023/05/28 06:12:38;;;;;;;;;;;18.00;99.90;;;;;;5098476;28;19928;-85
2023/05/28 06:15:04;;;;;;;;;;;17.80;99.90;;;;;;5085133;28;19932;-85
2023/05/28 06:17:30;;;;;;;;;;;18.30;99.90;;;;;;5095621;28;19935;-84
2023/05/28 06:19:55;;;;;;;;;;;17.90;99.90;;;;;;5098481;28;19931;-85
2023/05/28 06:22:21;;;;;;;;;;;17.80;99.90;;;;;;5099387;28;20446;-86
2023/05/28 06:24:49;;;;;;;;;;;17.50;99.90;;;;;;5081890;28;19928;-84
2023/05/28 06:27:14;;;;;;;;;;;18.10;99.90;;;;;;5097339;28;19928;-85
2023/05/28 06:29:41;;;;;;;;;;;17.80;99.90;;;;;;5099820;28;19928;-87
2023/05/28 06:32:07;;;;;;;;;;;18.00;99.90;;;;;;5097940;28;20417;-85
2023/05/28 06:34:32;;;;;;;;;;;17.70;99.90;;;;;;5079673;28;19928;-85
2023/05/28 06:36:58;;;;;;;;;;;18.00;99.90;;;;;;5097148;28;20378;-85
2023/05/28 06:39:23;;;;;;;;;;;18.00;99.90;;;;;;5082664;28;19924;-86
2023/05/28 06:41:49;;;;;;;;;;;17.70;99.90;;;;;;5079652;28;19938;-85
2023/05/28 06:44:15;;;;;;;;;;;18.10;99.90;;;;;;5101490;28;19928;-84
2023/05/28 06:46:40;;;;;;;;;;;18.30;99.90;;;;;;5079582;28;19934;-85
2023/05/28 06:49:06;;;;;;;;;;;18.40;99.90;;;;;;5096036;28;19928;-85
2023/05/28 06:51:31;;;;;;;;;;;19.00;99.90;;;;;;5101135;28;20313;-85
2023/05/28 06:53:57;;;;;;;;;;;19.20;99.90;;;;;;5097384;28;19977;-85
2023/05/28 06:56:23;;;;;;;;;;;19.00;99.90;;;;;;5097588;28;19928;-85
2023/05/28 06:58:50;;;;;;;;;;;19.00;99.90;;;;;;5100891;28;20391;-86
2023/05/28 07:01:16;;;;;;;;;;;19.20;99.90;;;;;;5082155;28;19954;-83
2023/05/28 07:03:42;;;;;;;;;;;19.40;99.90;;;;;;5098603;28;19928;-85
2023/05/28 07:06:07;;;;;;;;;;;19.30;99.90;;;;;;5099965;28;19932;-85
2023/05/28 07:08:33;;;;;;;;;;;19.70;99.90;;;;;;5100678;28;19935;-86
2023/05/28 07:10:58;;;;;;;;;;;19.20;99.90;;;;;;5099641;28;19968;-85
2023/05/28 07:13:24;;;;;;;;;;;18.80;99.90;;;;;;5100991;28;20015;-84
2023/05/28 07:15:50;;;;;;;;;;;18.80;99.90;;;;;;5099045;28;19928;-86
2023/05/28 07:18:16;;;;;;;;;;;19.00;99.90;;;;;;5097586;28;19932;-86
2023/05/28 07:20:41;;;;;;;;;;;18.50;99.90;;;;;;5082275;28;19935;-87
2023/05/28 07:23:07;;;;;;;;;;;18.70;99.90;;;;;;5098741;28;19928;-85
2023/05/28 07:25:32;;;;;;;;;;;18.40;99.90;;;;;;5097367;28;20071;-86
2023/05/28 07:27:58;;;;;;;;;;;18.70;99.90;;;;;;5097684;28;19978;-87
2023/05/28 07:30:23;;;;;;;;;;;18.80;99.90;;;;;;5080700;28;19932;-87
2023/05/28 07:32:53;;;;;;;;;;;19.00;99.90;;;;;;5098831;28;19935;-86
2023/05/28 07:35:19;;;;;;;;;;;19.30;99.90;;;;;;5100729;28;19924;-86
2023/05/28 07:37:45;;;;;;;;;;;19.60;99.90;;;;;;5101104;28;19988;-85
2023/05/28 07:40:10;;;;;;;;;;;19.70;99.90;;;;;;5096345;28;19928;-86
2023/05/28 07:42:36;;;;;;;;;;;20.00;99.90;;;;;;5100527;28;19928;-85
2023/05/28 07:45:01;;;;;;;;;;;19.60;99.90;;;;;;5099867;28;19935;-87
2023/05/28 07:47:27;;;;;;;;;;;19.80;99.90;;;;;;5098534;28;19924;-85
2023/05/28 07:49:52;;;;;;;;;;;20.30;99.90;;;;;;5098087;28;19924;-85
2023/05/28 07:52:19;;;;;;;;;;;19.90;99.90;;;;;;5077232;28;19925;-84
2023/05/28 07:54:44;;;;;;;;;;;19.70;99.90;;;;;;5088743;28;22302;-87
2023/05/28 07:57:10;;;;;;;;;;;20.00;99.90;;;;;;5084141;28;19974;-87
2023/05/28 07:59:36;;;;;;;;;;;19.90;99.90;;;;;;5097489;28;19977;-85
2023/05/28 08:02:01;;;;;;;;;;;20.10;99.90;;;;;;5081923;28;19923;-84
2023/05/28 08:04:27;;;;;;;;;;;20.30;99.90;;;;;;5086624;28;20323;-85
2023/05/28 08:06:52;;;;;;;;;;;20.50;99.90;;;;;;5095489;28;20437;-85
2023/05/28 08:09:18;;;;;;;;;;;20.80;99.90;;;;;;5063225;28;19932;-85
2023/05/28 08:11:44;;;;;;;;;;;20.80;99.90;;;;;;5089811;28;19935;-84
2023/05/28 08:14:09;;;;;;;;;;;20.90;99.90;;;;;;5096455;28;20015;-86
2023/05/28 08:16:35;;;;;;;;;;;21.20;99.90;;;;;;5093538;28;19945;-87
2023/05/28 08:19:01;;;;;;;;;;;21.60;99.90;;;;;;5093208;28;20007;-87
2023/05/28 08:21:26;;;;;;;;;;;22.00;99.90;;;;;;5083176;28;20380;-84
2023/05/28 08:23:54;;;;;;;;;;;22.00;99.90;;;;;;5093468;28;19940;-84
2023/05/28 08:26:20;;;;;;;;;;;21.60;99.90;;;;;;5094549;28;19966;-85
2023/05/28 08:28:46;;;;;;;;;;;22.00;99.90;;;;;;5094464;28;19938;-83
2023/05/28 08:31:11;;;;;;;;;;;21.90;99.90;;;;;;5098873;28;19931;-85
2023/05/28 08:33:37;;;;;;;;;;;21.70;99.90;;;;;;5089088;28;19932;-84
2023/05/28 08:36:02;;;;;;;;;;;21.50;99.90;;;;;;5092752;28;20396;-86
2023/05/28 08:38:31;;;;;;;;;;;21.70;99.90;;;;;;5094426;28;20430;-86
2023/05/28 08:40:57;;;;;;;;;;;21.70;99.90;;;;;;5099804;28;20298;-84
2023/05/28 08:43:23;;;;;;;;;;;22.10;99.90;;;;;;5093824;28;19932;-83
2023/05/28 08:45:52;;;;;;;;;;;21.90;99.90;;;;;;5097371;28;19985;-86
2023/05/28 08:48:17;;;;;;;;;;;22.10;99.90;;;;;;5098329;28;19928;-86
2023/05/28 08:50:47;;;;;;;;;;;22.40;99.90;;;;;;5098045;28;19924;-84
2023/05/28 08:53:15;;;;;;;;;;;22.40;99.90;;;;;;5093935;28;19935;-87
2023/05/28 08:55:41;;;;;;;;;;;22.00;99.90;;;;;;5098664;28;19928;-85
2023/05/28 08:58:06;;;;;;;;;;;22.40;99.90;;;;;;5093352;28;19941;-85
2023/05/28 09:00:32;;;;;;;;;;;22.00;99.90;;;;;;5095403;28;19927;-85
2023/05/28 09:02:58;;;;;;;;;;;21.80;99.90;;;;;;5094569;28;19924;-85
2023/05/28 09:05:24;;;;;;;;;;;22.40;99.90;;;;;;5100036;28;19935;-85
2023/05/28 09:07:49;;;;;;;;;;;22.50;99.90;;;;;;5095383;28;20005;-88
2023/05/28 09:10:15;;;;;;;;;;;22.30;99.90;;;;;;5082642;28;19939;-86
2023/05/28 09:12:56;;;;;;;;;;;22.50;99.90;;;;;;5096123;28;20281;-87
2023/05/28 09:15:22;;;;;;;;;;;22.20;99.90;;;;;;5075370;28;19935;-84
2023/05/28 09:17:47;;;;;;;;;;;22.40;99.90;;;;;;5095217;28;19928;-86
2023/05/28 09:20:13;;;;;;;;;;;22.30;99.90;;;;;;5093886;28;20308;-85
2023/05/28 09:22:39;;;;;;;;;;;22.60;99.90;;;;;;5071540;28;19938;-85
2023/05/28 09:25:08;;;;;;;;;;;22.80;99.90;;;;;;5079446;28;19934;-84
2023/05/28 09:27:34;;;;;;;;;;;22.90;99.90;;;;;;5083153;28;19932;-85
2023/05/28 09:30:05;;;;;;;;;;;23.30;99.90;;;;;;5077411;28;20018;-85
2023/05/28 09:32:33;;;;;;;;;;;22.90;99.90;;;;;;5078477;28;19978;-84
2023/05/28 09:34:59;;;;;;;;;;;23.50;99.90;;;;;;5082737;28;20665;-86
2023/05/28 09:37:27;;;;;;;;;;;23.40;99.90;;;;;;5081382;28;19928;-85
2023/05/28 09:39:59;;;;;;;;;;;23.70;99.90;;;;;;5084394;28;19932;-85
2023/05/28 09:42:25;;;;;;;;;;;23.50;99.90;;;;;;5062994;28;19928;-86
2023/05/28 09:44:50;;;;;;;;;;;23.70;99.90;;;;;;5085748;28;19930;-85
2023/05/28 09:47:17;;;;;;;;;;;23.80;99.90;;;;;;5068448;28;19935;-85
2023/05/28 09:49:46;;;;;;;;;;;23.40;99.90;;;;;;5087082;28;19928;-86
2023/05/28 09:52:21;;;;;;;;;;;23.90;99.90;;;;;;5081302;28;19934;-86
2023/05/28 09:54:50;;;;;;;;;;;23.70;99.90;;;;;;5089947;28;20466;-85
2023/05/28 09:57:17;;;;;;;;;;;23.50;99.90;;;;;;5073512;28;19931;-85
2023/05/28 09:59:44;;;;;;;;;;;23.50;99.90;;;;;;5091057;28;19932;-87
2023/05/28 10:02:13;;;;;;;;;;;24.10;99.90;;;;;;5076423;28;20396;-86
2023/05/28 10:04:39;;;;;;;;;;;23.70;99.90;;;;;;5093117;28;19952;-87
2023/05/28 10:07:05;;;;;;;;;;;23.50;99.90;;;;;;5076034;28;20010;-87
2023/05/28 10:09:35;;;;;;;;;;;23.50;99.90;;;;;;5095856;28;19928;-86
2023/05/28 10:12:15;;;;;;;;;;;23.50;99.90;;;;;;5094413;28;19924;-88
2023/05/28 10:14:41;;;;;;;;;;;23.60;99.90;;;;;;5091167;28;20506;-88
2023/05/28 10:17:13;;;;;;;;;;;24.00;99.90;;;;;;5076535;28;19930;-85
2023/05/28 10:19:39;;;;;;;;;;;24.10;99.90;;;;;;5090625;28;20077;-87
2023/05/28 10:22:05;;;;;;;;;;;24.10;99.90;;;;;;5093462;28;19988;-87
2023/05/28 10:24:31;;;;;;;;;;;24.20;99.90;;;;;;5095627;28;19932;-86
2023/05/28 10:26:57;;;;;;;;;;;24.50;99.90;;;;;;5093561;28;19928;-92
2023/05/28 10:29:23;;;;;;;;;;;24.90;99.90;;;;;;5082083;28;19927;-85
2023/05/28 10:31:59;;;;;;;;;;;23.90;99.90;;;;;;5097537;28;19934;-90
2023/05/28 10:34:31;;;;;;;;;;;24.40;99.90;;;;;;5095684;28;19967;-85
2023/05/28 10:36:59;;;;;;;;;;;24.10;99.90;;;;;;5099399;28;19927;-89
2023/05/28 10:39:25;;;;;;;;;;;24.40;99.90;;;;;;5082301;28;19931;-85
2023/05/28 10:41:51;;;;;;;;;;;25.30;99.90;;;;;;5083623;28;20008;-86
2023/05/28 10:44:18;;;;;;;;;;;24.20;99.90;;;;;;5099003;28;19928;-87
2023/05/28 10:46:54;;;;;;;;;;;24.60;99.90;;;;;;5102050;27;19963;-89
2023/05/28 10:49:20;;;;;;;;;;;24.90;99.90;;;;;;5078348;28;21488;-82
2023/05/28 10:52:02;;;;;;;;;;;24.00;99.80;;;;;;5099803;28;19928;-88
2023/05/28 10:54:35;;;;;;;;;;;24.90;99.90;;;;;;5100186;28;19924;-88
2023/05/28 10:57:13;;;;;;;;;;;25.00;99.90;;;;;;5081856;28;19939;-86
2023/05/28 10:59:45;;;;;;;;;;;24.50;99.90;;;;;;5098717;28;20473;-90
2023/05/28 11:02:12;;;;;;;;;;;24.80;99.90;;;;;;5094951;28;19928;-91
2023/05/28 11:04:39;;;;;;;;;;;24.90;99.90;;;;;;5082665;28;20031;-94
2023/05/28 11:07:05;;;;;;;;;;;25.10;99.90;;;;;;5079986;28;19928;-88
2023/05/28 11:09:31;;;;;;;;;;;25.40;99.90;;;;;;5100609;28;19937;-89
2023/05/28 11:12:01;;;;;;;;;;;25.20;99.90;;;;;;5101053;28;20043;-87
2023/05/28 11:14:36;;;;;;;;;;;25.00;99.90;;;;;;5101613;28;19924;-89
2023/05/28 11:17:05;;;;;;;;;;;25.00;99.90;;;;;;5098774;28;19971;-87
2023/05/28 11:19:31;;;;;;;;;;;25.20;99.90;;;;;;5099153;28;20443;-87
2023/05/28 11:21:56;;;;;;;;;;;25.70;99.90;;;;;;5080931;28;19928;-87
2023/05/28 11:24:22;;;;;;;;;;;25.80;99.90;;;;;;5100652;28;19959;-85
2023/05/28 11:26:47;;;;;;;;;;;25.60;99.90;;;;;;5095961;28;19947;-88
2023/05/28 11:29:15;;;;;;;;;;;25.60;99.90;;;;;;5100860;28;19928;-86
2023/05/28 11:31:40;;;;;;;;;;;25.60;99.30;;;;;;5098253;28;20384;-86
2023/05/28 11:34:06;;;;;;;;;;;25.40;99.90;;;;;;5100925;28;19934;-87
2023/05/28 11:36:39;;;;;;;;;;;25.30;98.60;;;;;;5097067;28;19928;-88
2023/05/28 11:39:04;;;;;;;;;;;25.50;99.90;;;;;;5096086;28;19932;-87
2023/05/28 11:41:31;;;;;;;;;;;25.20;98.80;;;;;;5100199;28;19974;-90
2023/05/28 11:43:56;;;;;;;;;;;25.50;99.90;;;;;;5080039;28;19931;-91
2023/05/28 11:46:22;;;;;;;;;;;25.80;99.40;;;;;;5097678;28;19924;-89
2023/05/28 11:48:47;;;;;;;;;;;25.30;99.30;;;;;;5098130;28;19960;-91
2023/05/28 11:51:13;;;;;;;;;;;24.90;99.90;;;;;;5082216;28;19957;-89
2023/05/28 11:53:39;;;;;;;;;;;25.20;99.90;;;;;;5082704;28;19924;-89
2023/05/28 11:56:06;;;;;;;;;;;25.60;99.20;;;;;;5080470;28;19934;-87
2023/05/28 11:58:33;;;;;;;;;;;25.10;97.90;;;;;;5081762;28;19928;-92
2023/05/28 12:00:58;;;;;;;;;;;24.60;94.20;;;;;;5096669;28;20007;-86
2023/05/28 12:03:27;;;;;;;;;;;25.20;96.40;;;;;;5100379;28;20014;-88
2023/05/28 12:05:52;;;;;;;;;;;25.30;97.50;;;;;;5098422;28;19924;-89
2023/05/28 12:08:19;;;;;;;;;;;25.40;99.00;;;;;;5081205;28;20308;-92
2023/05/28 12:10:44;;;;;;;;;;;25.60;97.90;;;;;;5099309;28;19928;-89
2023/05/28 12:13:12;;;;;;;;;;;24.90;95.80;;;;;;5081520;28;19935;-94
2023/05/28 12:15:37;;;;;;;;;;;25.50;95.40;;;;;;5099346;28;19928;-92
2023/05/28 12:18:04;;;;;;;;;;;25.60;95.60;;;;;;5078520;28;20044;-87
2023/05/28 12:20:31;;;;;;;;;;;25.40;96.80;;;;;;5098090;28;19934;-88
2023/05/28 12:23:00;;;;;;;;;;;25.30;96.30;;;;;;5077371;28;19983;-87
2023/05/28 12:25:25;;;;;;;;;;;25.50;94.20;;;;;;5098855;28;20418;-87
2023/05/28 12:27:51;;;;;;;;;;;26.00;94.50;;;;;;5098315;28;19927;-89
2023/05/28 12:30:16;;;;;;;;;;;25.80;96.20;;;;;;5098251;28;19992;-91
2023/05/28 12:32:42;;;;;;;;;;;25.60;95.70;;;;;;5097446;28;19924;-87
2023/05/28 12:35:08;;;;;;;;;;;25.00;92.90;;;;;;5097311;28;19934;-87
2023/05/28 12:37:34;;;;;;;;;;;25.10;95.20;;;;;;5097569;28;20296;-86
2023/05/28 12:40:00;;;;;;;;;;;25.20;94.10;;;;;;5098444;28;19934;-87
2023/05/28 12:42:25;;;;;;;;;;;25.30;91.90;;;;;;5099522;28;20289;-89
2023/05/28 12:44:51;;;;;;;;;;;25.10;94.00;;;;;;5095714;28;20281;-84
2023/05/28 12:47:16;;;;;;;;;;;25.40;95.40;;;;;;5093331;28;19928;-86
2023/05/28 12:49:42;;;;;;;;;;;25.30;93.60;;;;;;5095573;28;19935;-87
2023/05/28 12:52:07;;;;;;;;;;;25.60;93.00;;;;;;5098302;28;19928;-86
2023/05/28 12:54:33;;;;;;;;;;;25.20;92.60;;;;;;5096536;28;20329;-87
2023/05/28 12:56:59;;;;;;;;;;;25.30;93.60;;;;;;5095226;28;19928;-87
2023/05/28 12:59:25;;;;;;;;;;;24.80;91.70;;;;;;5080087;28;20034;-87
2023/05/28 13:01:51;;;;;;;;;;;25.10;90.40;;;;;;5098981;28;19978;-86
2023/05/28 13:04:17;;;;;;;;;;;25.10;93.00;;;;;;5075236;28;19971;-88
2023/05/28 13:06:43;;;;;;;;;;;25.10;92.30;;;;;;5100291;28;19924;-93
2023/05/28 13:09:09;;;;;;;;;;;25.30;94.00;;;;;;5096622;28;19985;-86
2023/05/28 13:11:41;;;;;;;;;;;25.40;89.90;;;;;;5098450;28;19928;-86
2023/05/28 13:14:07;;;;;;;;;;;26.10;93.10;;;;;;5081403;28;19963;-87
2023/05/28 13:16:33;;;;;;;;;;;25.20;89.00;;;;;;5099264;28;19967;-85
2023/05/28 13:19:01;;;;;;;;;;;25.40;90.60;;;;;;5092143;28;19934;-88
2023/05/28 13:21:28;;;;;;;;;;;25.30;92.70;;;;;;5097975;28;19931;-87
2023/05/28 13:23:53;;;;;;;;;;;25.40;87.00;;;;;;5098528;28;19932;-85
2023/05/28 13:26:19;;;;;;;;;;;26.00;90.50;;;;;;5095653;28;20286;-87
2023/05/28 13:28:45;;;;;;;;;;;25.80;92.40;;;;;;5083365;28;20014;-89
2023/05/28 13:31:10;;;;;;;;;;;25.90;87.30;;;;;;5099321;28;20042;-86
2023/05/28 13:33:36;;;;;;;;;;;24.90;89.30;;;;;;5085400;28;19973;-88
2023/05/28 13:36:01;;;;;;;;;;;24.50;87.00;;;;;;5099819;28;19932;-87
2023/05/28 13:38:28;;;;;;;;;;;25.00;85.50;;;;;;5098676;28;19935;-86
2023/05/28 13:40:53;;;;;;;;;;;25.10;88.40;;;;;;5100219;28;19938;-85
2023/05/28 13:43:19;;;;;;;;;;;25.00;87.80;;;;;;5103650;28;19924;-89
2023/05/28 13:45:45;;;;;;;;;;;25.30;88.90;;;;;;5102281;28;20019;-87
2023/05/28 13:48:11;;;;;;;;;;;25.80;87.80;;;;;;5084286;28;19928;-86
2023/05/28 13:50:36;;;;;;;;;;;25.40;84.60;;;;;;5099445;28;19928;-87
2023/05/28 13:53:02;;;;;;;;;;;25.60;81.60;;;;;;5099672;28;19924;-87
2023/05/28 13:55:27;;;;;;;;;;;24.90;76.90;;;;;;5100473;28;20326;-86
2023/05/28 13:57:53;;;;;;;;;;;25.70;86.30;;;;;;5100724;28;19928;-86
2023/05/28 14:00:20;;;;;;;;;;;25.80;87.90;;;;;;5083003;28;19934;-89
2023/05/28 14:02:47;;;;;;;;;;;25.40;82.40;;;;;;5095410;28;19971;-86
2023/05/28 14:05:12;;;;;;;;;;;25.40;82.40;;;;;;5097604;28;19928;-88
2023/05/28 14:07:38;;;;;;;;;;;25.20;83.60;;;;;;5099594;28;19981;-87
2023/05/28 14:10:03;;;;;;;;;;;24.70;79.50;;;;;;5102225;28;20326;-84
2023/05/28 14:12:29;;;;;;;;;;;25.10;82.90;;;;;;5085079;28;19928;-86